Terminal Aerodrome Forecast
Issued by NWS

Home | Current Version | Previous Version | Text Only | Print | Product List | Glossary On
Versions: 1 2 3 4 5 6 7 8 9 10 11 12 13 14 15 16 17 18
892
FTAK31 PAJN 061143
TAFAYA
TAF
PAYA 061143Z 0612/0712 08010G20KT 4SM RA BR OVC025 WS020/14050KT
     FM061500 09009G16KT 5SM RA BR SCT012 OVC020 WS020/15035KT
     FM062000 14013KT 5SM RA BR SCT005 OVC020
     FM062300 18011KT P6SM -SHRA SCT020 OVC030
     FM070300 16007KT P6SM -SHRA OVC035
     FM070600 09005KT P6SM -SHRA SCT030 OVC060
      AMD LTD TO CLD VIS AND WIND 0701/0709=

USA.gov is the U.S. government's official web portal to all federal, state and local government web resources and services.